sensor_id;sensor_type;location;lat;lon;timestamp;temperature;humidity
32865;DHT22;19219;44.500;11.188;2023-04-15T00:00:07;12.40;99.90
32865;DHT22;19219;44.500;11.188;2023-04-15T00:02:33;12.40;99.90
32865;DHT22;19219;44.500;11.188;2023-04-15T00:04:59;12.40;99.90
32865;DHT22;19219;44.500;11.188;2023-04-15T00:07:25;12.50;99.90
32865;DHT22;19219;44.500;11.188;2023-04-15T00:09:51;12.40;99.90
32865;DHT22;19219;44.500;11.188;2023-04-15T00:12:20;12.40;99.90
32865;DHT22;19219;44.500;11.188;2023-04-15T00:14:46;12.30;99.90
32865;DHT22;19219;44.500;11.188;2023-04-15T00:17:11;12.20;99.90
32865;DHT22;19219;44.500;11.188;2023-04-15T00:19:37;12.10;99.90
32865;DHT22;19219;44.500;11.188;2023-04-15T00:22:03;12.00;99.90
32865;DHT22;19219;44.500;11.188;2023-04-15T00:24:29;11.90;99.90
32865;DHT22;19219;44.500;11.188;2023-04-15T00:26:55;11.90;99.90
32865;DHT22;19219;44.500;11.188;2023-04-15T00:29:22;11.70;99.90
32865;DHT22;19219;44.500;11.188;2023-04-15T00:31:48;11.60;99.90
32865;DHT22;19219;44.500;11.188;2023-04-15T00:34:14;11.40;99.90
32865;DHT22;19219;44.500;11.188;2023-04-15T00:36:39;11.50;99.90
32865;DHT22;19219;44.500;11.188;2023-04-15T00:39:05;11.50;99.90
32865;DHT22;19219;44.500;11.188;2023-04-15T00:41:31;11.50;99.90
32865;DHT22;19219;44.500;11.188;2023-04-15T00:43:58;11.50;99.90
32865;DHT22;19219;44.500;11.188;2023-04-15T00:46:26;11.50;99.90
32865;DHT22;19219;44.500;11.188;2023-04-15T00:48:53;11.40;99.90
32865;DHT22;19219;44.500;11.188;2023-04-15T00:51:19;11.30;99.90
32865;DHT22;19219;44.500;11.188;2023-04-15T00:53:45;11.20;99.90
32865;DHT22;19219;44.500;11.188;2023-04-15T00:56:11;11.10;99.90
32865;DHT22;19219;44.500;11.188;2023-04-15T00:58:37;11.10;99.90
32865;DHT22;19219;44.500;11.188;2023-04-15T01:01:03;11.00;99.90
32865;DHT22;19219;44.500;11.188;2023-04-15T01:03:29;11.00;99.90
32865;DHT22;19219;44.500;11.188;2023-04-15T01:05:55;10.90;99.90
32865;DHT22;19219;44.500;11.188;2023-04-15T01:08:28;10.80;99.90
32865;DHT22;19219;44.500;11.188;2023-04-15T01:10:56;10.80;99.90
32865;DHT22;19219;44.500;11.188;2023-04-15T01:13:23;10.60;99.90
32865;DHT22;19219;44.500;11.188;2023-04-15T01:15:50;10.50;99.90
32865;DHT22;19219;44.500;11.188;2023-04-15T01:18:16;10.50;99.90
32865;DHT22;19219;44.500;11.188;2023-04-15T01:20:42;10.30;99.90
32865;DHT22;19219;44.500;11.188;2023-04-15T01:23:08;10.10;99.90
32865;DHT22;19219;44.500;11.188;2023-04-15T01:25:34;10.00;99.90
32865;DHT22;19219;44.500;11.188;2023-04-15T01:28:00;10.00;99.90
32865;DHT22;19219;44.500;11.188;2023-04-15T01:30:26;9.90;99.90
32865;DHT22;19219;44.500;11.188;2023-04-15T01:32:52;9.80;99.90
32865;DHT22;19219;44.500;11.188;2023-04-15T01:35:18;9.80;99.90
32865;DHT22;19219;44.500;11.188;2023-04-15T01:37:44;9.70;99.90
32865;DHT22;19219;44.500;11.188;2023-04-15T01:40:10;9.60;99.90
32865;DHT22;19219;44.500;11.188;2023-04-15T01:42:36;9.40;99.90
32865;DHT22;19219;44.500;11.188;2023-04-15T01:45:02;9.30;99.90
32865;DHT22;19219;44.500;11.188;2023-04-15T01:47:28;9.20;99.90
32865;DHT22;19219;44.500;11.188;2023-04-15T01:49:54;9.10;99.90
32865;DHT22;19219;44.500;11.188;2023-04-15T01:52:20;9.00;99.90
32865;DHT22;19219;44.500;11.188;2023-04-15T01:54:46;8.90;99.90
32865;DHT22;19219;44.500;11.188;2023-04-15T01:57:12;8.90;99.90
32865;DHT22;19219;44.500;11.188;2023-04-15T01:59:37;8.90;99.90
32865;DHT22;19219;44.500;11.188;2023-04-15T02:02:03;8.90;99.90
32865;DHT22;19219;44.500;11.188;2023-04-15T02:04:29;8.80;99.90
32865;DHT22;19219;44.500;11.188;2023-04-15T02:06:56;8.60;99.90
32865;DHT22;19219;44.500;11.188;2023-04-15T02:09:21;8.40;99.90
32865;DHT22;19219;44.500;11.188;2023-04-15T02:11:47;8.30;99.90
32865;DHT22;19219;44.500;11.188;2023-04-15T02:14:13;8.30;99.90
32865;DHT22;19219;44.500;11.188;2023-04-15T02:16:38;8.40;99.90
32865;DHT22;19219;44.500;11.188;2023-04-15T02:19:04;8.40;99.90
32865;DHT22;19219;44.500;11.188;2023-04-15T02:21:30;8.40;99.90
32865;DHT22;19219;44.500;11.188;2023-04-15T02:23:56;8.30;99.90
32865;DHT22;19219;44.500;11.188;2023-04-15T02:26:22;8.40;99.90
32865;DHT22;19219;44.500;11.188;2023-04-15T02:28:49;8.40;99.90
32865;DHT22;19219;44.500;11.188;2023-04-15T02:31:16;8.40;99.90
32865;DHT22;19219;44.500;11.188;2023-04-15T02:33:41;8.40;99.90
32865;DHT22;19219;44.500;11.188;2023-04-15T02:36:07;8.30;99.90
32865;DHT22;19219;44.500;11.188;2023-04-15T02:38:34;8.20;99.90
32865;DHT22;19219;44.500;11.188;2023-04-15T02:41:00;8.10;99.90
32865;DHT22;19219;44.500;11.188;2023-04-15T02:43:26;8.20;99.90
32865;DHT22;19219;44.500;11.188;2023-04-15T02:45:51;8.20;99.90
32865;DHT22;19219;44.500;11.188;2023-04-15T02:48:17;8.10;99.90
32865;DHT22;19219;44.500;11.188;2023-04-15T02:50:45;8.20;99.90
32865;DHT22;19219;44.500;11.188;2023-04-15T02:53:11;8.10;99.90
32865;DHT22;19219;44.500;11.188;2023-04-15T02:55:37;8.10;99.90
32865;DHT22;19219;44.500;11.188;2023-04-15T02:58:03;8.10;99.90
32865;DHT22;19219;44.500;11.188;2023-04-15T03:00:29;7.90;99.90
32865;DHT22;19219;44.500;11.188;2023-04-15T03:03:00;7.90;99.90
32865;DHT22;19219;44.500;11.188;2023-04-15T03:05:26;8.00;99.90
32865;DHT22;19219;44.500;11.188;2023-04-15T03:07:52;8.00;99.90
32865;DHT22;19219;44.500;11.188;2023-04-15T03:10:18;8.00;99.90
32865;DHT22;19219;44.500;11.188;2023-04-15T03:12:44;7.90;99.90
32865;DHT22;19219;44.500;11.188;2023-04-15T03:15:10;7.90;99.90
32865;DHT22;19219;44.500;11.188;2023-04-15T03:17:36;7.90;99.90
32865;DHT22;19219;44.500;11.188;2023-04-15T03:20:03;7.90;99.90
32865;DHT22;19219;44.500;11.188;2023-04-15T03:22:30;7.80;99.90
32865;DHT22;19219;44.500;11.188;2023-04-15T03:24:56;7.80;99.90
32865;DHT22;19219;44.500;11.188;2023-04-15T03:27:22;7.80;99.90
32865;DHT22;19219;44.500;11.188;2023-04-15T03:29:48;7.80;99.90
32865;DHT22;19219;44.500;11.188;2023-04-15T03:32:13;7.80;99.90
32865;DHT22;19219;44.500;11.188;2023-04-15T03:34:40;7.90;99.90
32865;DHT22;19219;44.500;11.188;2023-04-15T03:37:06;7.80;99.90
32865;DHT22;19219;44.500;11.188;2023-04-15T03:39:33;7.80;99.90
32865;DHT22;19219;44.500;11.188;2023-04-15T03:41:58;7.80;99.90
32865;DHT22;19219;44.500;11.188;2023-04-15T03:44:27;7.80;99.90
32865;DHT22;19219;44.500;11.188;2023-04-15T03:46:53;7.70;99.90
32865;DHT22;19219;44.500;11.188;2023-04-15T03:49:19;7.70;99.90
32865;DHT22;19219;44.500;11.188;2023-04-15T03:51:45;7.60;99.90
32865;DHT22;19219;44.500;11.188;2023-04-15T03:54:11;7.60;99.90
32865;DHT22;19219;44.500;11.188;2023-04-15T03:56:38;7.60;99.90
32865;DHT22;19219;44.500;11.188;2023-04-15T03:59:04;7.60;99.90
32865;DHT22;19219;44.500;11.188;2023-04-15T04:01:30;7.60;99.90
32865;DHT22;19219;44.500;11.188;2023-04-15T04:03:55;7.70;99.90
32865;DHT22;19219;44.500;11.188;2023-04-15T04:06:21;7.70;99.90
32865;DHT22;19219;44.500;11.188;2023-04-15T04:08:47;7.70;99.90
32865;DHT22;19219;44.500;11.188;2023-04-15T04:11:12;7.70;99.90
32865;DHT22;19219;44.500;11.188;2023-04-15T04:13:38;7.80;99.90
32865;DHT22;19219;44.500;11.188;2023-04-15T04:16:05;7.80;99.90
32865;DHT22;19219;44.500;11.188;2023-04-15T04:18:31;7.80;99.90
32865;DHT22;19219;44.500;11.188;2023-04-15T04:20:57;7.80;99.90
32865;DHT22;19219;44.500;11.188;2023-04-15T04:23:23;7.80;99.90
32865;DHT22;19219;44.500;11.188;2023-04-15T04:25:48;7.70;99.90
32865;DHT22;19219;44.500;11.188;2023-04-15T04:28:14;7.70;99.90
32865;DHT22;19219;44.500;11.188;2023-04-15T04:30:40;7.70;99.90
32865;DHT22;19219;44.500;11.188;2023-04-15T04:33:06;7.70;99.90
32865;DHT22;19219;44.500;11.188;2023-04-15T04:35:32;7.70;99.90
32865;DHT22;19219;44.500;11.188;2023-04-15T04:37:59;7.70;99.90
32865;DHT22;19219;44.500;11.188;2023-04-15T04:40:25;7.70;99.90
32865;DHT22;19219;44.500;11.188;2023-04-15T04:42:52;7.80;99.90
32865;DHT22;19219;44.500;11.188;2023-04-15T04:45:18;7.90;99.90
32865;DHT22;19219;44.500;11.188;2023-04-15T04:47:44;7.90;99.90
32865;DHT22;19219;44.500;11.188;2023-04-15T04:50:10;7.90;99.90
32865;DHT22;19219;44.500;11.188;2023-04-15T04:52:37;7.80;99.90
32865;DHT22;19219;44.500;11.188;2023-04-15T04:55:03;7.70;99.90
32865;DHT22;19219;44.500;11.188;2023-04-15T04:57:28;7.80;99.90
32865;DHT22;19219;44.500;11.188;2023-04-15T04:59:54;7.80;99.90
32865;DHT22;19219;44.500;11.188;2023-04-15T05:02:20;7.90;99.90
32865;DHT22;19219;44.500;11.188;2023-04-15T05:04:46;8.00;99.90
32865;DHT22;19219;44.500;11.188;2023-04-15T05:07:11;8.10;99.90
32865;DHT22;19219;44.500;11.188;2023-04-15T05:09:37;8.10;99.90
32865;DHT22;19219;44.500;11.188;2023-04-15T05:12:03;8.10;99.90
32865;DHT22;19219;44.500;11.188;2023-04-15T05:14:29;8.20;99.90
32865;DHT22;19219;44.500;11.188;2023-04-15T05:16:56;8.30;99.90
32865;DHT22;19219;44.500;11.188;2023-04-15T05:19:22;8.30;99.90
32865;DHT22;19219;44.500;11.188;2023-04-15T05:21:48;8.40;99.90
32865;DHT22;19219;44.500;11.188;2023-04-15T05:24:13;8.30;99.90
32865;DHT22;19219;44.500;11.188;2023-04-15T05:26:39;8.30;99.90
32865;DHT22;19219;44.500;11.188;2023-04-15T05:29:04;8.30;99.90
32865;DHT22;19219;44.500;11.188;2023-04-15T05:31:30;8.40;99.90
32865;DHT22;19219;44.500;11.188;2023-04-15T05:33:56;8.20;99.90
32865;DHT22;19219;44.500;11.188;2023-04-15T05:36:22;8.10;99.90
32865;DHT22;19219;44.500;11.188;2023-04-15T05:38:47;8.30;99.90
32865;DHT22;19219;44.500;11.188;2023-04-15T05:41:13;8.50;99.90
32865;DHT22;19219;44.500;11.188;2023-04-15T05:43:40;8.60;99.90
32865;DHT22;19219;44.500;11.188;2023-04-15T05:46:06;8.80;99.90
32865;DHT22;19219;44.500;11.188;2023-04-15T05:48:32;8.90;99.90
32865;DHT22;19219;44.500;11.188;2023-04-15T05:50:59;9.10;99.90
32865;DHT22;19219;44.500;11.188;2023-04-15T05:53:25;9.40;99.90
32865;DHT22;19219;44.500;11.188;2023-04-15T05:55:51;9.90;99.90
32865;DHT22;19219;44.500;11.188;2023-04-15T05:58:16;10.90;99.90
32865;DHT22;19219;44.500;11.188;2023-04-15T06:00:42;12.10;99.90
32865;DHT22;19219;44.500;11.188;2023-04-15T06:03:09;13.30;99.90
32865;DHT22;19219;44.500;11.188;2023-04-15T06:05:36;14.30;99.90
32865;DHT22;19219;44.500;11.188;2023-04-15T06:08:01;15.30;99.90
32865;DHT22;19219;44.500;11.188;2023-04-15T06:10:27;16.40;99.90
32865;DHT22;19219;44.500;11.188;2023-04-15T06:12:53;17.00;99.90
32865;DHT22;19219;44.500;11.188;2023-04-15T06:15:18;17.70;99.90
32865;DHT22;19219;44.500;11.188;2023-04-15T06:17:44;18.10;99.90
32865;DHT22;19219;44.500;11.188;2023-04-15T06:20:11;18.40;99.90
32865;DHT22;19219;44.500;11.188;2023-04-15T06:22:37;18.70;99.90
32865;DHT22;19219;44.500;11.188;2023-04-15T06:25:06;19.30;99.90
32865;DHT22;19219;44.500;11.188;2023-04-15T06:27:33;18.80;99.90
32865;DHT22;19219;44.500;11.188;2023-04-15T06:29:59;18.50;99.90
32865;DHT22;19219;44.500;11.188;2023-04-15T06:32:24;19.00;99.90
32865;DHT22;19219;44.500;11.188;2023-04-15T06:34:50;19.70;99.30
32865;DHT22;19219;44.500;11.188;2023-04-15T06:37:16;20.70;97.00
32865;DHT22;19219;44.500;11.188;2023-04-15T06:39:42;20.80;95.20
32865;DHT22;19219;44.500;11.188;2023-04-15T06:42:09;21.10;94.20
32865;DHT22;19219;44.500;11.188;2023-04-15T06:44:35;20.80;94.20
32865;DHT22;19219;44.500;11.188;2023-04-15T06:47:02;20.20;94.50
32865;DHT22;19219;44.500;11.188;2023-04-15T06:49:27;19.80;95.10
32865;DHT22;19219;44.500;11.188;2023-04-15T06:51:53;19.90;94.70
32865;DHT22;19219;44.500;11.188;2023-04-15T06:54:19;20.50;94.40
32865;DHT22;19219;44.500;11.188;2023-04-15T06:56:45;20.50;94.10
32865;DHT22;19219;44.500;11.188;2023-04-15T06:59:10;21.40;93.20
32865;DHT22;19219;44.500;11.188;2023-04-15T07:01:37;21.80;92.30
32865;DHT22;19219;44.500;11.188;2023-04-15T07:04:02;22.40;91.10
32865;DHT22;19219;44.500;11.188;2023-04-15T07:06:28;23.10;89.90
32865;DHT22;19219;44.500;11.188;2023-04-15T07:08:54;23.10;90.00
32865;DHT22;19219;44.500;11.188;2023-04-15T07:11:20;23.10;90.50
32865;DHT22;19219;44.500;11.188;2023-04-15T07:13:46;23.70;90.00
32865;DHT22;19219;44.500;11.188;2023-04-15T07:16:12;24.00;86.50
32865;DHT22;19219;44.500;11.188;2023-04-15T07:18:38;24.60;83.60
32865;DHT22;19219;44.500;11.188;2023-04-15T07:21:03;25.80;79.40
32865;DHT22;19219;44.500;11.188;2023-04-15T07:23:29;25.60;73.80
32865;DHT22;19219;44.500;11.188;2023-04-15T07:25:54;26.50;71.90
32865;DHT22;19219;44.500;11.188;2023-04-15T07:28:21;27.40;66.70
32865;DHT22;19219;44.500;11.188;2023-04-15T07:30:47;26.80;63.70
32865;DHT22;19219;44.500;11.188;2023-04-15T07:33:13;26.60;64.00
32865;DHT22;19219;44.500;11.188;2023-04-15T07:35:39;27.40;63.20
32865;DHT22;19219;44.500;11.188;2023-04-15T07:38:04;27.40;59.30
32865;DHT22;19219;44.500;11.188;2023-04-15T07:40:30;27.40;57.60
32865;DHT22;19219;44.500;11.188;2023-04-15T07:42:56;27.60;56.10
32865;DHT22;19219;44.500;11.188;2023-04-15T07:45:23;28.40;55.00
32865;DHT22;19219;44.500;11.188;2023-04-15T07:47:48;28.70;53.20
32865;DHT22;19219;44.500;11.188;2023-04-15T07:50:15;29.10;51.90
32865;DHT22;19219;44.500;11.188;2023-04-15T07:52:42;29.30;50.10
32865;DHT22;19219;44.500;11.188;2023-04-15T07:55:09;29.10;49.70
32865;DHT22;19219;44.500;11.188;2023-04-15T07:57:35;29.70;48.40
32865;DHT22;19219;44.500;11.188;2023-04-15T08:00:02;29.90;48.30
32865;DHT22;19219;44.500;11.188;2023-04-15T08:02:30;30.20;47.30
32865;DHT22;19219;44.500;11.188;2023-04-15T08:04:56;29.80;47.10
32865;DHT22;19219;44.500;11.188;2023-04-15T08:07:22;29.90;46.30
32865;DHT22;19219;44.500;11.188;2023-04-15T08:09:48;30.30;46.10
32865;DHT22;19219;44.500;11.188;2023-04-15T08:12:13;29.80;45.50
32865;DHT22;19219;44.500;11.188;2023-04-15T08:14:40;29.40;46.20
32865;DHT22;19219;44.500;11.188;2023-04-15T08:17:06;29.90;45.80
32865;DHT22;19219;44.500;11.188;2023-04-15T08:19:32;30.30;45.40
32865;DHT22;19219;44.500;11.188;2023-04-15T08:21:57;30.30;44.80
32865;DHT22;19219;44.500;11.188;2023-04-15T08:24:23;29.10;45.50
32865;DHT22;19219;44.500;11.188;2023-04-15T08:26:51;29.30;46.20
32865;DHT22;19219;44.500;11.188;2023-04-15T08:29:16;30.70;45.50
32865;DHT22;19219;44.500;11.188;2023-04-15T08:31:42;31.20;43.30
32865;DHT22;19219;44.500;11.188;2023-04-15T08:34:10;31.40;43.00
32865;DHT22;19219;44.500;11.188;2023-04-15T08:36:36;30.20;44.60
32865;DHT22;19219;44.500;11.188;2023-04-15T08:39:02;30.20;43.50
32865;DHT22;19219;44.500;11.188;2023-04-15T08:41:45;30.30;42.80
32865;DHT22;19219;44.500;11.188;2023-04-15T08:44:14;30.70;42.30
32865;DHT22;19219;44.500;11.188;2023-04-15T08:46:41;31.30;41.70
32865;DHT22;19219;44.500;11.188;2023-04-15T08:49:10;30.80;41.20
32865;DHT22;19219;44.500;11.188;2023-04-15T08:51:39;29.70;42.40
32865;DHT22;19219;44.500;11.188;2023-04-15T08:54:07;29.80;42.50
32865;DHT22;19219;44.500;11.188;2023-04-15T08:56:33;29.50;44.00
32865;DHT22;19219;44.500;11.188;2023-04-15T08:58:59;30.40;43.10
32865;DHT22;19219;44.500;11.188;2023-04-15T09:01:26;30.70;42.40
32865;DHT22;19219;44.500;11.188;2023-04-15T09:03:52;31.20;42.40
32865;DHT22;19219;44.500;11.188;2023-04-15T09:06:22;31.50;42.00
32865;DHT22;19219;44.500;11.188;2023-04-15T09:08:49;31.90;41.80
32865;DHT22;19219;44.500;11.188;2023-04-15T09:11:15;31.40;41.90
32865;DHT22;19219;44.500;11.188;2023-04-15T09:13:42;31.20;41.90
32865;DHT22;19219;44.500;11.188;2023-04-15T09:16:08;30.90;43.10
32865;DHT22;19219;44.500;11.188;2023-04-15T09:18:35;30.60;42.70
32865;DHT22;19219;44.500;11.188;2023-04-15T09:21:09;30.40;43.40
32865;DHT22;19219;44.500;11.188;2023-04-15T09:23:36;29.40;43.20
32865;DHT22;19219;44.500;11.188;2023-04-15T09:26:03;28.10;45.10
32865;DHT22;19219;44.500;11.188;2023-04-15T09:28:29;25.70;46.50
32865;DHT22;19219;44.500;11.188;2023-04-15T09:30:59;23.90;48.20
32865;DHT22;19219;44.500;11.188;2023-04-15T09:33:26;23.20;49.80
32865;DHT22;19219;44.500;11.188;2023-04-15T09:36:02;23.00;51.80
32865;DHT22;19219;44.500;11.188;2023-04-15T09:38:29;22.80;52.80
32865;DHT22;19219;44.500;11.188;2023-04-15T09:40:55;23.00;53.20
32865;DHT22;19219;44.500;11.188;2023-04-15T09:43:21;22.60;52.60
32865;DHT22;19219;44.500;11.188;2023-04-15T09:45:52;22.50;54.30
32865;DHT22;19219;44.500;11.188;2023-04-15T09:48:24;22.40;55.20
32865;DHT22;19219;44.500;11.188;2023-04-15T09:50:59;22.10;56.30
32865;DHT22;19219;44.500;11.188;2023-04-15T09:53:25;22.20;56.70
32865;DHT22;19219;44.500;11.188;2023-04-15T09:56:01;22.80;56.70
32865;DHT22;19219;44.500;11.188;2023-04-15T09:58:29;22.50;56.90
32865;DHT22;19219;44.500;11.188;2023-04-15T10:00:56;22.70;59.00
32865;DHT22;19219;44.500;11.188;2023-04-15T10:03:25;22.40;58.80
32865;DHT22;19219;44.500;11.188;2023-04-15T10:05:54;22.10;61.00
32865;DHT22;19219;44.500;11.188;2023-04-15T10:08:23;22.10;61.30
32865;DHT22;19219;44.500;11.188;2023-04-15T10:10:50;22.80;63.00
32865;DHT22;19219;44.500;11.188;2023-04-15T10:13:23;22.80;63.30
32865;DHT22;19219;44.500;11.188;2023-04-15T10:16:09;23.00;60.80
32865;DHT22;19219;44.500;11.188;2023-04-15T10:18:39;23.00;63.00
32865;DHT22;19219;44.500;11.188;2023-04-15T10:21:06;22.50;63.10
32865;DHT22;19219;44.500;11.188;2023-04-15T10:23:33;22.10;64.30
32865;DHT22;19219;44.500;11.188;2023-04-15T10:25:58;21.90;66.00
32865;DHT22;19219;44.500;11.188;2023-04-15T10:28:25;22.00;62.80
32865;DHT22;19219;44.500;11.188;2023-04-15T10:30:52;21.90;63.70
32865;DHT22;19219;44.500;11.188;2023-04-15T10:33:21;22.00;64.10
32865;DHT22;19219;44.500;11.188;2023-04-15T10:35:48;21.90;64.60
32865;DHT22;19219;44.500;11.188;2023-04-15T10:38:37;22.50;63.70
32865;DHT22;19219;44.500;11.188;2023-04-15T10:41:22;22.70;64.70
32865;DHT22;19219;44.500;11.188;2023-04-15T10:46:23;22.20;62.60
32865;DHT22;19219;44.500;11.188;2023-04-15T10:48:51;21.70;61.30
32865;DHT22;19219;44.500;11.188;2023-04-15T10:51:30;21.60;63.00
32865;DHT22;19219;44.500;11.188;2023-04-15T10:53:58;21.70;63.00
32865;DHT22;19219;44.500;11.188;2023-04-15T10:56:24;21.90;64.70
32865;DHT22;19219;44.500;11.188;2023-04-15T10:58:50;21.80;65.30
32865;DHT22;19219;44.500;11.188;2023-04-15T11:01:19;21.90;65.70
32865;DHT22;19219;44.500;11.188;2023-04-15T11:03:47;21.80;66.30
32865;DHT22;19219;44.500;11.188;2023-04-15T11:06:13;21.60;67.80
32865;DHT22;19219;44.500;11.188;2023-04-15T11:09:00;21.50;68.20
32865;DHT22;19219;44.500;11.188;2023-04-15T11:12:03;21.80;68.80
32865;DHT22;19219;44.500;11.188;2023-04-15T11:14:29;21.90;66.80
32865;DHT22;19219;44.500;11.188;2023-04-15T11:16:57;21.80;68.10
32865;DHT22;19219;44.500;11.188;2023-04-15T11:19:23;21.90;65.70
32865;DHT22;19219;44.500;11.188;2023-04-15T11:21:48;21.70;64.40
32865;DHT22;19219;44.500;11.188;2023-04-15T11:24:24;21.40;67.10
32865;DHT22;19219;44.500;11.188;2023-04-15T11:27:00;21.80;68.30
32865;DHT22;19219;44.500;11.188;2023-04-15T11:29:30;21.70;65.60
32865;DHT22;19219;44.500;11.188;2023-04-15T11:32:08;21.10;64.60
32865;DHT22;19219;44.500;11.188;2023-04-15T11:34:34;21.00;67.30
32865;DHT22;19219;44.500;11.188;2023-04-15T11:37:03;21.00;68.20
32865;DHT22;19219;44.500;11.188;2023-04-15T11:39:29;20.90;65.70
32865;DHT22;19219;44.500;11.188;2023-04-15T11:41:55;20.80;67.50
32865;DHT22;19219;44.500;11.188;2023-04-15T11:44:21;20.70;69.60
32865;DHT22;19219;44.500;11.188;2023-04-15T11:46:46;20.70;68.30
32865;DHT22;19219;44.500;11.188;2023-04-15T11:49:26;20.70;67.90
32865;DHT22;19219;44.500;11.188;2023-04-15T11:51:52;20.60;69.10
32865;DHT22;19219;44.500;11.188;2023-04-15T11:54:18;20.40;68.10
32865;DHT22;19219;44.500;11.188;2023-04-15T11:56:49;20.40;68.70
32865;DHT22;19219;44.500;11.188;2023-04-15T11:59:15;20.50;70.90
32865;DHT22;19219;44.500;11.188;2023-04-15T12:01:41;20.40;67.10
32865;DHT22;19219;44.500;11.188;2023-04-15T12:04:16;20.30;69.20
32865;DHT22;19219;44.500;11.188;2023-04-15T12:06:45;20.40;69.60
32865;DHT22;19219;44.500;11.188;2023-04-15T12:09:15;20.30;68.30
32865;DHT22;19219;44.500;11.188;2023-04-15T12:11:48;20.20;67.30
32865;DHT22;19219;44.500;11.188;2023-04-15T12:14:29;20.00;68.20
32865;DHT22;19219;44.500;11.188;2023-04-15T12:16:57;20.00;67.80
32865;DHT22;19219;44.500;11.188;2023-04-15T12:19:33;19.90;67.50
32865;DHT22;19219;44.500;11.188;2023-04-15T12:22:04;19.90;68.00
32865;DHT22;19219;44.500;11.188;2023-04-15T12:24:34;19.90;68.00
32865;DHT22;19219;44.500;11.188;2023-04-15T12:27:05;19.90;68.30
32865;DHT22;19219;44.500;11.188;2023-04-15T12:29:32;20.00;66.90
32865;DHT22;19219;44.500;11.188;2023-04-15T12:32:06;20.10;67.80
32865;DHT22;19219;44.500;11.188;2023-04-15T12:34:34;20.30;68.80
32865;DHT22;19219;44.500;11.188;2023-04-15T12:37:01;20.30;65.90
32865;DHT22;19219;44.500;11.188;2023-04-15T12:39:31;20.20;66.70
32865;DHT22;19219;44.500;11.188;2023-04-15T12:41:57;20.10;67.70
32865;DHT22;19219;44.500;11.188;2023-04-15T12:44:26;20.10;68.30
32865;DHT22;19219;44.500;11.188;2023-04-15T12:46:52;20.10;67.60
32865;DHT22;19219;44.500;11.188;2023-04-15T12:49:19;20.10;68.20
32865;DHT22;19219;44.500;11.188;2023-04-15T12:51:49;20.00;69.10
32865;DHT22;19219;44.500;11.188;2023-04-15T12:54:16;20.00;68.50
32865;DHT22;19219;44.500;11.188;2023-04-15T12:56:43;20.10;68.50
32865;DHT22;19219;44.500;11.188;2023-04-15T12:59:08;20.20;68.50
32865;DHT22;19219;44.500;11.188;2023-04-15T13:01:35;20.20;68.40
32865;DHT22;19219;44.500;11.188;2023-04-15T13:04:01;20.20;68.70
32865;DHT22;19219;44.500;11.188;2023-04-15T13:06:26;20.30;68.90
32865;DHT22;19219;44.500;11.188;2023-04-15T13:08:53;20.30;66.30
32865;DHT22;19219;44.500;11.188;2023-04-15T13:11:21;20.30;66.00
32865;DHT22;19219;44.500;11.188;2023-04-15T13:13:47;20.40;65.90
32865;DHT22;19219;44.500;11.188;2023-04-15T13:16:12;20.40;66.60
32865;DHT22;19219;44.500;11.188;2023-04-15T13:18:38;20.40;64.50
32865;DHT22;19219;44.500;11.188;2023-04-15T13:21:04;20.30;64.70
32865;DHT22;19219;44.500;11.188;2023-04-15T13:23:32;20.30;65.80
32865;DHT22;19219;44.500;11.188;2023-04-15T13:25:58;20.20;62.80
32865;DHT22;19219;44.500;11.188;2023-04-15T13:28:23;20.30;65.00
32865;DHT22;19219;44.500;11.188;2023-04-15T13:30:49;20.30;65.60
32865;DHT22;19219;44.500;11.188;2023-04-15T13:33:16;20.40;65.00
32865;DHT22;19219;44.500;11.188;2023-04-15T13:35:42;20.60;66.00
32865;DHT22;19219;44.500;11.188;2023-04-15T13:38:07;20.60;63.90
32865;DHT22;19219;44.500;11.188;2023-04-15T13:40:33;20.60;64.10
32865;DHT22;19219;44.500;11.188;2023-04-15T13:42:59;20.70;64.20
32865;DHT22;19219;44.500;11.188;2023-04-15T13:45:25;20.70;63.90
32865;DHT22;19219;44.500;11.188;2023-04-15T13:47:51;20.50;64.70
32865;DHT22;19219;44.500;11.188;2023-04-15T13:50:17;20.30;65.30
32865;DHT22;19219;44.500;11.188;2023-04-15T13:52:43;20.50;66.00
32865;DHT22;19219;44.500;11.188;2023-04-15T13:55:09;20.40;65.70
32865;DHT22;19219;44.500;11.188;2023-04-15T13:57:35;20.60;67.00
32865;DHT22;19219;44.500;11.188;2023-04-15T14:00:01;20.70;66.50
32865;DHT22;19219;44.500;11.188;2023-04-15T14:02:28;20.70;65.60
32865;DHT22;19219;44.500;11.188;2023-04-15T14:04:54;20.50;65.40
32865;DHT22;19219;44.500;11.188;2023-04-15T14:07:19;20.40;67.00
32865;DHT22;19219;44.500;11.188;2023-04-15T14:09:45;20.40;67.40
32865;DHT22;19219;44.500;11.188;2023-04-15T14:12:12;20.40;66.80
32865;DHT22;19219;44.500;11.188;2023-04-15T14:14:39;20.40;67.20
32865;DHT22;19219;44.500;11.188;2023-04-15T14:17:05;20.60;68.20
32865;DHT22;19219;44.500;11.188;2023-04-15T14:19:31;20.70;68.60
32865;DHT22;19219;44.500;11.188;2023-04-15T14:21:57;20.80;67.20
32865;DHT22;19219;44.500;11.188;2023-04-15T14:24:23;20.70;66.30
32865;DHT22;19219;44.500;11.188;2023-04-15T14:26:49;20.80;66.80
32865;DHT22;19219;44.500;11.188;2023-04-15T14:29:15;20.90;66.60
32865;DHT22;19219;44.500;11.188;2023-04-15T14:31:41;21.00;67.90
32865;DHT22;19219;44.500;11.188;2023-04-15T14:34:09;21.10;67.80
32865;DHT22;19219;44.500;11.188;2023-04-15T14:36:35;20.90;66.90
32865;DHT22;19219;44.500;11.188;2023-04-15T14:39:01;20.60;65.70
32865;DHT22;19219;44.500;11.188;2023-04-15T14:41:28;20.60;66.90
32865;DHT22;19219;44.500;11.188;2023-04-15T14:43:54;20.40;66.90
32865;DHT22;19219;44.500;11.188;2023-04-15T14:46:19;20.60;67.70
32865;DHT22;19219;44.500;11.188;2023-04-15T14:48:45;20.60;68.80
32865;DHT22;19219;44.500;11.188;2023-04-15T14:51:11;20.60;67.90
32865;DHT22;19219;44.500;11.188;2023-04-15T14:53:37;20.60;68.30
32865;DHT22;19219;44.500;11.188;2023-04-15T14:56:02;20.50;67.80
32865;DHT22;19219;44.500;11.188;2023-04-15T14:58:28;20.30;68.60
32865;DHT22;19219;44.500;11.188;2023-04-15T15:00:54;20.30;69.60
32865;DHT22;19219;44.500;11.188;2023-04-15T15:03:29;20.40;69.20
32865;DHT22;19219;44.500;11.188;2023-04-15T15:05:55;20.60;68.50
32865;DHT22;19219;44.500;11.188;2023-04-15T15:08:22;20.50;68.80
32865;DHT22;19219;44.500;11.188;2023-04-15T15:10:54;20.30;67.70
32865;DHT22;19219;44.500;11.188;2023-04-15T15:13:20;20.30;68.10
32865;DHT22;19219;44.500;11.188;2023-04-15T15:15:46;20.30;69.60
32865;DHT22;19219;44.500;11.188;2023-04-15T15:18:14;20.20;69.50
32865;DHT22;19219;44.500;11.188;2023-04-15T15:20:41;20.10;70.40